sensor_id;sensor_type;location;lat;lon;timestamp;pressure;altitude;pressure_sealevel;temperature;humidity
24486;BME280;13449;49.374;8.584;2022-10-20T00:01:55;100864.94;;;12.93;100.00
24486;BME280;13449;49.374;8.584;2022-10-20T00:04:22;100868.72;;;12.92;100.00
24486;BME280;13449;49.374;8.584;2022-10-20T00:06:48;100857.59;;;12.93;100.00
24486;BME280;13449;49.374;8.584;2022-10-20T00:09:15;100858.16;;;12.89;100.00
24486;BME280;13449;49.374;8.584;2022-10-20T00:11:42;100864.56;;;12.96;100.00
24486;BME280;13449;49.374;8.584;2022-10-20T00:14:13;100848.13;;;12.96;100.00
24486;BME280;13449;49.374;8.584;2022-10-20T00:16:39;100849.91;;;13.03;99.06
24486;BME280;13449;49.374;8.584;2022-10-20T00:19:06;100846.69;;;13.00;99.27
24486;BME280;13449;49.374;8.584;2022-10-20T00:21:32;100850.28;;;13.00;98.44
24486;BME280;13449;49.374;8.584;2022-10-20T00:24:00;100846.50;;;13.01;97.71
24486;BME280;13449;49.374;8.584;2022-10-20T00:26:29;100839.81;;;13.04;96.97
24486;BME280;13449;49.374;8.584;2022-10-20T00:28:56;100843.13;;;12.99;98.33
24486;BME280;13449;49.374;8.584;2022-10-20T00:31:23;100841.00;;;13.01;99.18
24486;BME280;13449;49.374;8.584;2022-10-20T00:33:50;100846.25;;;12.96;97.81
24486;BME280;13449;49.374;8.584;2022-10-20T00:36:19;100847.44;;;12.94;99.03
24486;BME280;13449;49.374;8.584;2022-10-20T00:38:46;100855.19;;;12.90;97.65
24486;BME280;13449;49.374;8.584;2022-10-20T00:41:20;100849.84;;;12.82;98.35
24486;BME280;13449;49.374;8.584;2022-10-20T00:43:59;100833.69;;;12.87;97.32
24486;BME280;13449;49.374;8.584;2022-10-20T00:46:32;100835.88;;;12.92;95.91
24486;BME280;13449;49.374;8.584;2022-10-20T00:49:16;100839.00;;;12.89;96.03
24486;BME280;13449;49.374;8.584;2022-10-20T00:51:45;100829.06;;;12.88;95.71
24486;BME280;13449;49.374;8.584;2022-10-20T00:54:22;100815.56;;;12.86;95.84
24486;BME280;13449;49.374;8.584;2022-10-20T00:56:56;100815.66;;;12.93;96.26
24486;BME280;13449;49.374;8.584;2022-10-20T00:59:25;100813.56;;;12.95;94.23
24486;BME280;13449;49.374;8.584;2022-10-20T01:01:54;100802.84;;;12.93;94.92
24486;BME280;13449;49.374;8.584;2022-10-20T01:04:21;100801.38;;;12.97;93.34
24486;BME280;13449;49.374;8.584;2022-10-20T01:06:48;100798.47;;;12.99;93.86
24486;BME280;13449;49.374;8.584;2022-10-20T01:09:14;100796.97;;;12.96;94.49
24486;BME280;13449;49.374;8.584;2022-10-20T01:17:59;100805.00;;;12.83;95.02
24486;BME280;13449;49.374;8.584;2022-10-20T01:26:52;100793.47;;;12.67;95.78
24486;BME280;13449;49.374;8.584;2022-10-20T01:29:32;100791.09;;;12.64;95.75
24486;BME280;13449;49.374;8.584;2022-10-20T01:32:30;100791.94;;;12.64;95.68
24486;BME280;13449;49.374;8.584;2022-10-20T01:35:09;100786.47;;;12.64;95.45
24486;BME280;13449;49.374;8.584;2022-10-20T01:40:28;100771.19;;;12.70;95.16
24486;BME280;13449;49.374;8.584;2022-10-20T01:42:59;100776.00;;;12.68;95.29
24486;BME280;13449;49.374;8.584;2022-10-20T01:45:30;100762.31;;;12.68;94.29
24486;BME280;13449;49.374;8.584;2022-10-20T01:48:00;100770.72;;;12.66;94.53
24486;BME280;13449;49.374;8.584;2022-10-20T01:50:32;100755.16;;;12.67;93.73
24486;BME280;13449;49.374;8.584;2022-10-20T01:53:00;100751.75;;;12.65;93.35
24486;BME280;13449;49.374;8.584;2022-10-20T01:55:27;100748.16;;;12.64;92.88
24486;BME280;13449;49.374;8.584;2022-10-20T02:00:40;100735.81;;;12.68;93.43
24486;BME280;13449;49.374;8.584;2022-10-20T02:08:53;100743.59;;;12.86;92.57
24486;BME280;13449;49.374;8.584;2022-10-20T02:11:22;100749.31;;;12.91;92.86
24486;BME280;13449;49.374;8.584;2022-10-20T02:13:53;100741.69;;;12.86;92.26
24486;BME280;13449;49.374;8.584;2022-10-20T02:16:31;100742.47;;;12.80;93.35
24486;BME280;13449;49.374;8.584;2022-10-20T02:19:00;100740.00;;;12.85;92.01
24486;BME280;13449;49.374;8.584;2022-10-20T02:21:27;100736.81;;;12.82;93.79
24486;BME280;13449;49.374;8.584;2022-10-20T02:23:55;100735.50;;;12.78;92.51
24486;BME280;13449;49.374;8.584;2022-10-20T02:26:25;100736.34;;;12.78;92.00
24486;BME280;13449;49.374;8.584;2022-10-20T02:28:56;100748.50;;;12.76;92.89
24486;BME280;13449;49.374;8.584;2022-10-20T02:31:24;100739.66;;;12.74;92.82
24486;BME280;13449;49.374;8.584;2022-10-20T02:33:52;100741.03;;;12.84;91.98
24486;BME280;13449;49.374;8.584;2022-10-20T02:36:24;100735.50;;;12.78;92.46
24486;BME280;13449;49.374;8.584;2022-10-20T02:38:52;100735.03;;;12.74;92.88
24486;BME280;13449;49.374;8.584;2022-10-20T02:41:18;100731.69;;;12.79;91.66
24486;BME280;13449;49.374;8.584;2022-10-20T02:43:50;100721.53;;;12.73;91.93
24486;BME280;13449;49.374;8.584;2022-10-20T02:46:18;100725.97;;;12.74;92.39
24486;BME280;13449;49.374;8.584;2022-10-20T02:48:49;100726.44;;;12.77;90.95
24486;BME280;13449;49.374;8.584;2022-10-20T02:51:17;100723.50;;;12.79;90.81
24486;BME280;13449;49.374;8.584;2022-10-20T02:53:44;100726.22;;;12.79;90.31
24486;BME280;13449;49.374;8.584;2022-10-20T02:59:51;100722.97;;;12.69;92.40
24486;BME280;13449;49.374;8.584;2022-10-20T03:02:20;100715.44;;;12.71;92.28
24486;BME280;13449;49.374;8.584;2022-10-20T03:04:47;100710.41;;;12.74;92.37
24486;BME280;13449;49.374;8.584;2022-10-20T03:07:13;100708.91;;;12.72;92.07
24486;BME280;13449;49.374;8.584;2022-10-20T03:09:42;100722.56;;;12.72;91.70
24486;BME280;13449;49.374;8.584;2022-10-20T03:12:09;100707.69;;;12.74;91.68
24486;BME280;13449;49.374;8.584;2022-10-20T03:14:35;100715.88;;;12.74;91.56
24486;BME280;13449;49.374;8.584;2022-10-20T03:17:02;100714.38;;;12.72;92.74
24486;BME280;13449;49.374;8.584;2022-10-20T03:19:28;100718.34;;;12.69;91.56
24486;BME280;13449;49.374;8.584;2022-10-20T03:21:55;100720.63;;;12.66;92.65
24486;BME280;13449;49.374;8.584;2022-10-20T03:24:22;100714.69;;;12.62;92.48
24486;BME280;13449;49.374;8.584;2022-10-20T03:26:50;100707.97;;;12.65;93.20
24486;BME280;13449;49.374;8.584;2022-10-20T03:29:17;100708.78;;;12.58;93.06
24486;BME280;13449;49.374;8.584;2022-10-20T03:31:43;100705.19;;;12.58;93.88
24486;BME280;13449;49.374;8.584;2022-10-20T03:34:10;100704.16;;;12.59;93.31
24486;BME280;13449;49.374;8.584;2022-10-20T03:36:37;100696.97;;;12.58;93.62
24486;BME280;13449;49.374;8.584;2022-10-20T03:39:04;100697.81;;;12.58;92.85
24486;BME280;13449;49.374;8.584;2022-10-20T03:41:33;100688.94;;;12.56;93.26
24486;BME280;13449;49.374;8.584;2022-10-20T03:43:59;100682.44;;;12.57;93.75
24486;BME280;13449;49.374;8.584;2022-10-20T03:46:26;100679.97;;;12.63;93.71
24486;BME280;13449;49.374;8.584;2022-10-20T03:48:52;100671.00;;;12.69;93.88
24486;BME280;13449;49.374;8.584;2022-10-20T03:51:19;100665.63;;;12.60;93.78
24486;BME280;13449;49.374;8.584;2022-10-20T03:53:50;100670.34;;;12.67;93.39
24486;BME280;13449;49.374;8.584;2022-10-20T03:56:19;100671.00;;;12.69;94.59
24486;BME280;13449;49.374;8.584;2022-10-20T03:58:47;100666.75;;;12.66;93.92
24486;BME280;13449;49.374;8.584;2022-10-20T04:01:21;100659.13;;;12.62;93.71
24486;BME280;13449;49.374;8.584;2022-10-20T04:03:49;100661.69;;;12.63;94.22
24486;BME280;13449;49.374;8.584;2022-10-20T04:06:19;100662.50;;;12.64;94.04
24486;BME280;13449;49.374;8.584;2022-10-20T04:08:46;100667.34;;;12.62;94.38
24486;BME280;13449;49.374;8.584;2022-10-20T04:11:14;100675.47;;;12.55;94.88
24486;BME280;13449;49.374;8.584;2022-10-20T04:13:41;100684.78;;;12.60;93.20
24486;BME280;13449;49.374;8.584;2022-10-20T04:16:07;100679.97;;;12.63;93.95
24486;BME280;13449;49.374;8.584;2022-10-20T04:18:33;100677.66;;;12.59;93.71
24486;BME280;13449;49.374;8.584;2022-10-20T04:21:00;100679.97;;;12.63;93.25
24486;BME280;13449;49.374;8.584;2022-10-20T04:23:26;100677.13;;;12.71;93.14
24486;BME280;13449;49.374;8.584;2022-10-20T04:25:53;100680.91;;;12.70;92.10
24486;BME280;13449;49.374;8.584;2022-10-20T04:28:20;100679.41;;;12.67;92.20
24486;BME280;13449;49.374;8.584;2022-10-20T04:30:46;100675.16;;;12.65;90.70
24486;BME280;13449;49.374;8.584;2022-10-20T04:33:13;100672.69;;;12.70;91.01
24486;BME280;13449;49.374;8.584;2022-10-20T04:35:40;100663.81;;;12.68;90.77
24486;BME280;13449;49.374;8.584;2022-10-20T04:38:06;100658.34;;;12.68;90.78
24486;BME280;13449;49.374;8.584;2022-10-20T04:40:33;100653.94;;;12.67;90.99
24486;BME280;13449;49.374;8.584;2022-10-20T04:43:00;100635.16;;;12.64;91.09
24486;BME280;13449;49.374;8.584;2022-10-20T04:45:27;100632.22;;;12.65;90.76
24486;BME280;13449;49.374;8.584;2022-10-20T04:47:53;100633.53;;;12.69;91.21
24486;BME280;13449;49.374;8.584;2022-10-20T04:50:19;100633.72;;;12.68;91.12
24486;BME280;13449;49.374;8.584;2022-10-20T04:52:46;100634.38;;;12.70;90.16
24486;BME280;13449;49.374;8.584;2022-10-20T04:55:15;100620.88;;;12.68;92.34
24486;BME280;13449;49.374;8.584;2022-10-20T04:57:41;100620.50;;;12.71;90.52
24486;BME280;13449;49.374;8.584;2022-10-20T05:00:10;100612.50;;;12.70;91.22
24486;BME280;13449;49.374;8.584;2022-10-20T05:02:39;100609.94;;;12.68;90.73
24486;BME280;13449;49.374;8.584;2022-10-20T05:05:10;100609.09;;;12.68;90.60
24486;BME280;13449;49.374;8.584;2022-10-20T05:07:36;100612.44;;;12.63;91.61
24486;BME280;13449;49.374;8.584;2022-10-20T05:10:06;100621.41;;;12.57;91.73
24486;BME280;13449;49.374;8.584;2022-10-20T05:12:32;100633.22;;;12.57;93.15
24486;BME280;13449;49.374;8.584;2022-10-20T05:14:59;100628.31;;;12.53;92.33
24486;BME280;13449;49.374;8.584;2022-10-20T05:17:28;100621.47;;;12.42;93.93
24486;BME280;13449;49.374;8.584;2022-10-20T05:19:55;100611.38;;;12.43;92.52
24486;BME280;13449;49.374;8.584;2022-10-20T05:22:21;100608.19;;;12.39;94.37
24486;BME280;13449;49.374;8.584;2022-10-20T05:24:50;100610.47;;;12.36;93.21
24486;BME280;13449;49.374;8.584;2022-10-20T05:27:17;100594.66;;;12.31;93.48
24486;BME280;13449;49.374;8.584;2022-10-20T05:29:45;100598.69;;;12.35;94.84
24486;BME280;13449;49.374;8.584;2022-10-20T05:32:12;100591.28;;;12.29;93.02
24486;BME280;13449;49.374;8.584;2022-10-20T05:34:38;100590.22;;;12.30;93.85
24486;BME280;13449;49.374;8.584;2022-10-20T05:37:05;100595.56;;;12.17;93.67
24486;BME280;13449;49.374;8.584;2022-10-20T05:39:32;100592.16;;;12.15;94.96
24486;BME280;13449;49.374;8.584;2022-10-20T05:41:58;100588.13;;;12.11;94.35
24486;BME280;13449;49.374;8.584;2022-10-20T05:44:24;100587.94;;;12.13;94.31
24486;BME280;13449;49.374;8.584;2022-10-20T05:46:51;100584.81;;;12.16;94.41
24486;BME280;13449;49.374;8.584;2022-10-20T05:49:17;100579.56;;;12.14;95.48
24486;BME280;13449;49.374;8.584;2022-10-20T05:51:45;100580.97;;;12.10;96.04
24486;BME280;13449;49.374;8.584;2022-10-20T05:54:12;100577.41;;;12.09;95.20
24486;BME280;13449;49.374;8.584;2022-10-20T05:56:39;100581.63;;;12.12;95.57
24486;BME280;13449;49.374;8.584;2022-10-20T05:59:06;100582.84;;;12.09;96.35
24486;BME280;13449;49.374;8.584;2022-10-20T06:01:33;100590.38;;;12.07;96.79
24486;BME280;13449;49.374;8.584;2022-10-20T06:04:16;100579.28;;;12.09;97.39
24486;BME280;13449;49.374;8.584;2022-10-20T06:06:42;100580.31;;;12.08;98.23
24486;BME280;13449;49.374;8.584;2022-10-20T06:09:10;100579.72;;;12.13;96.88
24486;BME280;13449;49.374;8.584;2022-10-20T06:11:37;100576.34;;;12.10;97.89
24486;BME280;13449;49.374;8.584;2022-10-20T06:14:06;100582.19;;;12.07;99.17
24486;BME280;13449;49.374;8.584;2022-10-20T06:16:33;100599.44;;;12.08;99.79
24486;BME280;13449;49.374;8.584;2022-10-20T06:19:00;100616.63;;;12.02;99.60
24486;BME280;13449;49.374;8.584;2022-10-20T06:21:30;100625.09;;;12.07;99.72
24486;BME280;13449;49.374;8.584;2022-10-20T06:23:58;100624.25;;;12.06;99.82
24486;BME280;13449;49.374;8.584;2022-10-20T06:26:26;100625.56;;;12.10;99.20
24486;BME280;13449;49.374;8.584;2022-10-20T06:28:58;100619.69;;;12.14;99.14
24486;BME280;13449;49.374;8.584;2022-10-20T06:31:32;100622.91;;;12.17;99.03
24486;BME280;13449;49.374;8.584;2022-10-20T06:34:03;100630.69;;;12.20;99.14
24486;BME280;13449;49.374;8.584;2022-10-20T06:36:29;100655.97;;;12.22;98.96
24486;BME280;13449;49.374;8.584;2022-10-20T06:38:57;100648.59;;;12.23;98.41
24486;BME280;13449;49.374;8.584;2022-10-20T06:41:25;100657.25;;;12.26;98.66
24486;BME280;13449;49.374;8.584;2022-10-20T06:43:52;100645.97;;;12.29;97.89
24486;BME280;13449;49.374;8.584;2022-10-20T06:46:27;100635.66;;;12.31;99.04
24486;BME280;13449;49.374;8.584;2022-10-20T06:48:54;100627.28;;;12.33;98.49
24486;BME280;13449;49.374;8.584;2022-10-20T06:51:24;100641.41;;;12.36;98.90
24486;BME280;13449;49.374;8.584;2022-10-20T06:53:51;100637.88;;;12.42;99.12
24486;BME280;13449;49.374;8.584;2022-10-20T06:56:20;100645.50;;;12.47;98.61
24486;BME280;13449;49.374;8.584;2022-10-20T06:58:50;100660.28;;;12.52;98.67
24486;BME280;13449;49.374;8.584;2022-10-20T07:01:22;100656.97;;;12.57;98.32
24486;BME280;13449;49.374;8.584;2022-10-20T07:03:53;100655.38;;;12.63;98.17
24486;BME280;13449;49.374;8.584;2022-10-20T07:06:23;100647.63;;;12.66;97.75
24486;BME280;13449;49.374;8.584;2022-10-20T07:08:51;100642.38;;;12.71;98.05
24486;BME280;13449;49.374;8.584;2022-10-20T07:11:29;100651.72;;;12.77;100.00
24486;BME280;13449;49.374;8.584;2022-10-20T07:14:00;100656.59;;;12.81;98.98
24486;BME280;13449;49.374;8.584;2022-10-20T07:16:28;100650.16;;;12.89;98.28
24486;BME280;13449;49.374;8.584;2022-10-20T07:18:58;100649.16;;;12.96;97.67
24486;BME280;13449;49.374;8.584;2022-10-20T07:21:26;100643.91;;;13.01;97.84
24486;BME280;13449;49.374;8.584;2022-10-20T07:24:02;100639.19;;;13.10;97.05
24486;BME280;13449;49.374;8.584;2022-10-20T07:26:31;100649.31;;;13.16;97.20
24486;BME280;13449;49.374;8.584;2022-10-20T07:28:59;100648.75;;;13.21;96.20
24486;BME280;13449;49.374;8.584;2022-10-20T07:31:35;100644.56;;;13.25;95.67
24486;BME280;13449;49.374;8.584;2022-10-20T07:34:03;100654.25;;;13.27;94.62
24486;BME280;13449;49.374;8.584;2022-10-20T07:36:49;100649.03;;;13.32;95.03
24486;BME280;13449;49.374;8.584;2022-10-20T07:39:18;100636.00;;;13.34;95.10
24486;BME280;13449;49.374;8.584;2022-10-20T07:41:45;100627.38;;;13.37;95.43
24486;BME280;13449;49.374;8.584;2022-10-20T07:44:13;100629.13;;;13.45;94.31
24486;BME280;13449;49.374;8.584;2022-10-20T07:46:40;100632.94;;;13.50;93.98
24486;BME280;13449;49.374;8.584;2022-10-20T07:49:06;100631.94;;;13.58;94.27
24486;BME280;13449;49.374;8.584;2022-10-20T07:51:52;100625.84;;;13.63;93.99
24486;BME280;13449;49.374;8.584;2022-10-20T07:54:19;100624.41;;;13.67;92.74
24486;BME280;13449;49.374;8.584;2022-10-20T07:56:45;100620.84;;;13.73;92.51
24486;BME280;13449;49.374;8.584;2022-10-20T07:59:13;100611.81;;;13.79;92.75
24486;BME280;13449;49.374;8.584;2022-10-20T08:01:42;100605.66;;;13.77;92.36
24486;BME280;13449;49.374;8.584;2022-10-20T08:04:09;100617.06;;;13.80;91.96
24486;BME280;13449;49.374;8.584;2022-10-20T08:06:36;100606.97;;;13.81;91.36
24486;BME280;13449;49.374;8.584;2022-10-20T08:09:04;100614.38;;;13.87;91.51
24486;BME280;13449;49.374;8.584;2022-10-20T08:11:31;100617.59;;;13.97;91.56
24486;BME280;13449;49.374;8.584;2022-10-20T08:13:58;100620.59;;;14.09;91.68
24486;BME280;13449;49.374;8.584;2022-10-20T08:16:24;100626.72;;;14.17;90.82
24486;BME280;13449;49.374;8.584;2022-10-20T08:18:53;100626.09;;;14.15;89.94
24486;BME280;13449;49.374;8.584;2022-10-20T08:21:36;100627.38;;;14.26;90.51
24486;BME280;13449;49.374;8.584;2022-10-20T08:24:05;100639.63;;;14.30;89.27
24486;BME280;13449;49.374;8.584;2022-10-20T08:26:32;100629.78;;;14.35;88.10
24486;BME280;13449;49.374;8.584;2022-10-20T08:28:58;100623.03;;;14.38;90.88
24486;BME280;13449;49.374;8.584;2022-10-20T08:31:25;100627.03;;;14.35;89.23
24486;BME280;13449;49.374;8.584;2022-10-20T08:33:54;100627.84;;;14.36;88.11
24486;BME280;13449;49.374;8.584;2022-10-20T08:36:22;100621.13;;;14.51;88.78
24486;BME280;13449;49.374;8.584;2022-10-20T08:38:48;100611.25;;;14.50;87.35
24486;BME280;13449;49.374;8.584;2022-10-20T08:41:24;100611.66;;;14.61;88.85
24486;BME280;13449;49.374;8.584;2022-10-20T08:44:19;100620.34;;;14.84;86.29
24486;BME280;13449;49.374;8.584;2022-10-20T08:46:47;100609.56;;;14.89;86.56
24486;BME280;13449;49.374;8.584;2022-10-20T08:49:20;100611.47;;;14.88;86.81
24486;BME280;13449;49.374;8.584;2022-10-20T08:51:48;100624.38;;;14.88;87.79
24486;BME280;13449;49.374;8.584;2022-10-20T08:54:16;100624.34;;;15.01;88.74
24486;BME280;13449;49.374;8.584;2022-10-20T08:56:45;100632.16;;;15.04;86.53
24486;BME280;13449;49.374;8.584;2022-10-20T08:59:24;100635.97;;;15.16;85.63
24486;BME280;13449;49.374;8.584;2022-10-20T09:01:52;100631.31;;;15.17;85.47
24486;BME280;13449;49.374;8.584;2022-10-20T09:04:21;100636.63;;;15.18;85.39
24486;BME280;13449;49.374;8.584;2022-10-20T09:06:56;100631.53;;;15.15;85.28
24486;BME280;13449;49.374;8.584;2022-10-20T09:09:28;100628.56;;;15.23;85.16
24486;BME280;13449;49.374;8.584;2022-10-20T09:12:02;100647.19;;;15.21;84.57
24486;BME280;13449;49.374;8.584;2022-10-20T09:14:35;100647.38;;;15.20;84.56
24486;BME280;13449;49.374;8.584;2022-10-20T09:17:03;100626.66;;;15.37;85.70
24486;BME280;13449;49.374;8.584;2022-10-20T09:19:34;100647.16;;;15.47;82.89
24486;BME280;13449;49.374;8.584;2022-10-20T09:22:05;100648.88;;;15.55;83.19
24486;BME280;13449;49.374;8.584;2022-10-20T09:24:34;100643.34;;;15.62;85.04
24486;BME280;13449;49.374;8.584;2022-10-20T09:27:21;100647.31;;;15.72;84.56
24486;BME280;13449;49.374;8.584;2022-10-20T09:29:48;100667.16;;;15.87;84.06
24486;BME280;13449;49.374;8.584;2022-10-20T09:32:32;100665.66;;;15.98;84.65
24486;BME280;13449;49.374;8.584;2022-10-20T09:35:25;100653.59;;;15.99;82.30
24486;BME280;13449;49.374;8.584;2022-10-20T09:37:56;100645.50;;;16.11;83.91
24486;BME280;13449;49.374;8.584;2022-10-20T09:40:24;100650.31;;;16.22;83.53
24486;BME280;13449;49.374;8.584;2022-10-20T09:42:58;100650.41;;;16.02;80.94
24486;BME280;13449;49.374;8.584;2022-10-20T09:45:27;100660.19;;;15.91;81.33
24486;BME280;13449;49.374;8.584;2022-10-20T09:48:01;100655.31;;;15.87;81.33
24486;BME280;13449;49.374;8.584;2022-10-20T09:50:32;100643.03;;;15.96;83.40
24486;BME280;13449;49.374;8.584;2022-10-20T09:53:03;100653.16;;;16.02;82.61
24486;BME280;13449;49.374;8.584;2022-10-20T09:55:35;100634.53;;;15.98;84.03
24486;BME280;13449;49.374;8.584;2022-10-20T09:58:19;100641.31;;;16.08;82.06
24486;BME280;13449;49.374;8.584;2022-10-20T10:00:55;100640.88;;;16.05;82.30
24486;BME280;13449;49.374;8.584;2022-10-20T10:03:22;100628.16;;;16.10;81.65
24486;BME280;13449;49.374;8.584;2022-10-20T10:08:20;100636.53;;;16.28;81.25
24486;BME280;13449;49.374;8.584;2022-10-20T10:11:03;100625.31;;;16.30;81.07
24486;BME280;13449;49.374;8.584;2022-10-20T10:13:40;100602.22;;;16.31;80.48
24486;BME280;13449;49.374;8.584;2022-10-20T10:16:10;100604.50;;;16.40;79.42
24486;BME280;13449;49.374;8.584;2022-10-20T10:18:40;100608.25;;;16.46;79.55
24486;BME280;13449;49.374;8.584;2022-10-20T10:21:14;100607.66;;;16.44;81.72
24486;BME280;13449;49.374;8.584;2022-10-20T10:28:58;100601.25;;;16.57;80.54
24486;BME280;13449;49.374;8.584;2022-10-20T10:31:25;100623.03;;;16.58;80.07
24486;BME280;13449;49.374;8.584;2022-10-20T10:34:21;100600.56;;;16.68;80.40
24486;BME280;13449;49.374;8.584;2022-10-20T10:36:48;100595.38;;;16.78;81.34
24486;BME280;13449;49.374;8.584;2022-10-20T10:39:16;100593.75;;;16.95;82.09
24486;BME280;13449;49.374;8.584;2022-10-20T10:47:12;100580.28;;;16.87;79.91
24486;BME280;13449;49.374;8.584;2022-10-20T10:50:07;100563.56;;;16.82;79.65
24486;BME280;13449;49.374;8.584;2022-10-20T10:53:19;100575.56;;;16.94;78.74
24486;BME280;13449;49.374;8.584;2022-10-20T11:02:11;100562.28;;;17.09;79.84
24486;BME280;13449;49.374;8.584;2022-10-20T11:14:56;100568.78;;;17.15;80.29
24486;BME280;13449;49.374;8.584;2022-10-20T11:17:38;100570.06;;;17.12;81.19
24486;BME280;13449;49.374;8.584;2022-10-20T11:20:10;100552.78;;;17.05;83.27
24486;BME280;13449;49.374;8.584;2022-10-20T11:25:37;100563.50;;;16.88;81.10
24486;BME280;13449;49.374;8.584;2022-10-20T11:31:00;100558.25;;;16.87;82.83
24486;BME280;13449;49.374;8.584;2022-10-20T11:33:33;100544.09;;;16.77;82.63
24486;BME280;13449;49.374;8.584;2022-10-20T11:36:17;100529.38;;;16.65;85.84
24486;BME280;13449;49.374;8.584;2022-10-20T11:38:53;100520.75;;;16.55;87.14
24486;BME280;13449;49.374;8.584;2022-10-20T11:44:33;100557.72;;;16.40;89.55
24486;BME280;13449;49.374;8.584;2022-10-20T11:47:05;100538.84;;;16.44;88.69
24486;BME280;13449;49.374;8.584;2022-10-20T11:49:33;100540.75;;;16.43;89.10
24486;BME280;13449;49.374;8.584;2022-10-20T11:52:28;100556.41;;;16.43;89.64
24486;BME280;13449;49.374;8.584;2022-10-20T11:55:14;100562.38;;;16.40;89.07
24486;BME280;13449;49.374;8.584;2022-10-20T12:03:33;100562.56;;;16.45;90.42
24486;BME280;13449;49.374;8.584;2022-10-20T12:19:27;100556.31;;;16.25;94.80
24486;BME280;13449;49.374;8.584;2022-10-20T12:22:36;100556.59;;;16.17;95.18
24486;BME280;13449;49.374;8.584;2022-10-20T12:27:23;100549.03;;;16.06;97.88
24486;BME280;13449;49.374;8.584;2022-10-20T12:34:57;100533.03;;;15.96;96.17
24486;BME280;13449;49.374;8.584;2022-10-20T12:37:27;100536.56;;;16.03;97.48
24486;BME280;13449;49.374;8.584;2022-10-20T12:40:18;100539.13;;;15.98;97.07
24486;BME280;13449;49.374;8.584;2022-10-20T12:42:51;100529.81;;;15.99;94.60
24486;BME280;13449;49.374;8.584;2022-10-20T12:47:53;100518.22;;;15.97;94.28
24486;BME280;13449;49.374;8.584;2022-10-20T12:52:52;100504.63;;;16.02;94.29
24486;BME280;13449;49.374;8.584;2022-10-20T12:55:29;100497.41;;;16.08;95.13
24486;BME280;13449;49.374;8.584;2022-10-20T13:05:58;100496.69;;;16.19;94.04
24486;BME280;13449;49.374;8.584;2022-10-20T13:08:27;100496.91;;;16.17;94.34
24486;BME280;13449;49.374;8.584;2022-10-20T13:10:56;100487.31;;;16.26;94.08
24486;BME280;13449;49.374;8.584;2022-10-20T13:13:50;100482.03;;;16.25;93.09
24486;BME280;13449;49.374;8.584;2022-10-20T13:16:22;100481.19;;;16.24;94.02
24486;BME280;13449;49.374;8.584;2022-10-20T13:18:50;100477.38;;;16.25;92.35
24486;BME280;13449;49.374;8.584;2022-10-20T13:21:28;100476.94;;;16.28;94.76
24486;BME280;13449;49.374;8.584;2022-10-20T13:24:12;100457.47;;;16.23;92.09
24486;BME280;13449;49.374;8.584;2022-10-20T13:29:30;100453.47;;;16.26;91.29
24486;BME280;13449;49.374;8.584;2022-10-20T13:34:42;100489.44;;;16.24;91.47
24486;BME280;13449;49.374;8.584;2022-10-20T13:43:04;100502.59;;;16.22;96.51
24486;BME280;13449;49.374;8.584;2022-10-20T13:51:12;100486.69;;;16.24;100.00
24486;BME280;13449;49.374;8.584;2022-10-20T13:53:47;100492.03;;;16.19;100.00
24486;BME280;13449;49.374;8.584;2022-10-20T13:59:15;100490.59;;;16.10;100.00
24486;BME280;13449;49.374;8.584;2022-10-20T14:01:49;100493.56;;;16.09;100.00
24486;BME280;13449;49.374;8.584;2022-10-20T14:04:33;100495.72;;;16.07;100.00
24486;BME280;13449;49.374;8.584;2022-10-20T14:07:03;100513.06;;;16.07;100.00
24486;BME280;13449;49.374;8.584;2022-10-20T14:09:33;100502.91;;;16.08;100.00
24486;BME280;13449;49.374;8.584;2022-10-20T14:12:13;100513.47;;;16.11;100.00
24486;BME280;13449;49.374;8.584;2022-10-20T14:14:43;100501.81;;;16.09;100.00
24486;BME280;13449;49.374;8.584;2022-10-20T14:17:21;100502.22;;;16.12;100.00
24486;BME280;13449;49.374;8.584;2022-10-20T14:19:48;100495.50;;;16.08;100.00
24486;BME280;13449;49.374;8.584;2022-10-20T14:22:20;100480.25;;;16.06;100.00
24486;BME280;13449;49.374;8.584;2022-10-20T14:24:55;100472.91;;;16.00;100.00
24486;BME280;13449;49.374;8.584;2022-10-20T14:27:26;100465.25;;;16.02;100.00
24486;BME280;13449;49.374;8.584;2022-10-20T14:29:54;100472.50;;;15.96;100.00
24486;BME280;13449;49.374;8.584;2022-10-20T14:32:24;100469.13;;;15.94;100.00
24486;BME280;13449;49.374;8.584;2022-10-20T14:35:13;100471.25;;;15.92;100.00
24486;BME280;13449;49.374;8.584;2022-10-20T14:37:45;100470.41;;;15.91;100.00
24486;BME280;13449;49.374;8.584;2022-10-20T14:42:45;100444.22;;;15.89;98.03
24486;BME280;13449;49.374;8.584;2022-10-20T14:45:24;100439.97;;;15.93;97.32
24486;BME280;13449;49.374;8.584;2022-10-20T14:47:52;100432.75;;;15.92;97.40
24486;BME280;13449;49.374;8.584;2022-10-20T14:50:40;100433.59;;;15.92;98.34
24486;BME280;13449;49.374;8.584;2022-10-20T14:55:50;100432.38;;;15.88;98.30
24486;BME280;13449;49.374;8.584;2022-10-20T14:59:00;100420.91;;;15.91;98.87
24486;BME280;13449;49.374;8.584;2022-10-20T15:01:29;100431.06;;;15.91;98.18
24486;BME280;13449;49.374;8.584;2022-10-20T15:06:36;100422.22;;;15.89;99.30
24486;BME280;13449;49.374;8.584;2022-10-20T15:09:03;100417.78;;;15.88;98.19
24486;BME280;13449;49.374;8.584;2022-10-20T15:11:32;100415.22;;;15.86;97.95
24486;BME280;13449;49.374;8.584;2022-10-20T15:14:01;100405.06;;;15.87;97.18
24486;BME280;13449;49.374;8.584;2022-10-20T15:16:38;100405.72;;;15.89;96.39
24486;BME280;13449;49.374;8.584;2022-10-20T15:22:00;100406.75;;;15.88;98.78
24486;BME280;13449;49.374;8.584;2022-10-20T15:24:27;100408.88;;;15.86;100.00
24486;BME280;13449;49.374;8.584;2022-10-20T15:26:55;100410.19;;;15.83;100.00